Time;durP1;ratioP1;P1;durP2;ratioP2;P2;SDS_P1;SDS_P2;PMS_P1;PMS_P2;Temp;Humidity;BMP_temperature;BMP_pressure;BME280_temperature;BME280_humidity;BME280_pressure;Samples;Min_cycle;Max_cycle;Signal;HPM_P1;HPM_P2
2022/11/14 00:02:40;;;;;;;45.78;26.30;;;4.00;99.90;;;;;;4909906;29;20131;-69
2022/11/14 00:05:26;;;;;;;43.60;24.40;;;4.00;99.90;;;;;;4913839;29;20166;-69
2022/11/14 00:08:30;;;;;;;46.30;24.20;;;4.00;99.90;;;;;;4914470;29;20123;-69
2022/11/14 00:11:17;;;;;;;45.45;25.10;;;4.00;99.90;;;;;;4914646;29;20047;-68
2022/11/14 00:14:03;;;;;;;42.20;25.15;;;4.00;99.90;;;;;;4914799;29;20044;-68
2022/11/14 00:16:49;;;;;;;48.38;26.13;;;4.00;99.90;;;;;;4914432;29;20047;-68
2022/11/14 00:19:35;;;;;;;48.17;25.08;;;4.10;99.90;;;;;;4909868;29;20040;-69
2022/11/14 00:22:21;;;;;;;46.60;24.83;;;4.00;99.90;;;;;;4914154;29;20063;-69
2022/11/14 00:25:10;;;;;;;42.83;24.67;;;4.10;99.90;;;;;;4914427;29;20400;-68
2022/11/14 00:27:57;;;;;;;43.38;24.70;;;4.00;99.90;;;;;;4912203;29;20051;-68
2022/11/14 00:30:47;;;;;;;44.47;25.70;;;4.10;99.90;;;;;;4908115;29;20040;-69
2022/11/14 00:33:33;;;;;;;45.30;25.40;;;4.00;99.90;;;;;;4912174;29;20040;-68
2022/11/14 00:36:19;;;;;;;39.20;23.63;;;4.10;99.90;;;;;;4913481;29;20506;-68
2022/11/14 00:39:08;;;;;;;47.80;26.00;;;4.10;99.90;;;;;;4898978;29;20056;-68
2022/11/14 00:41:54;;;;;;;44.05;25.15;;;4.10;99.90;;;;;;4912402;29;20052;-67
2022/11/14 00:44:40;;;;;;;45.17;25.92;;;4.10;99.90;;;;;;4922955;29;20063;-68
2022/11/14 00:47:26;;;;;;;50.40;26.02;;;4.20;99.90;;;;;;4901302;29;20044;-68
2022/11/14 00:50:11;;;;;;;46.70;24.90;;;4.20;99.90;;;;;;4913235;29;20126;-67
2022/11/14 00:52:57;;;;;;;45.50;24.85;;;4.20;99.90;;;;;;4911839;29;20055;-67
2022/11/14 00:55:43;;;;;;;43.88;25.10;;;4.20;99.90;;;;;;4913749;29;20558;-68
2022/11/14 00:58:29;;;;;;;48.25;25.92;;;4.20;99.90;;;;;;4913815;29;20048;-68
2022/11/14 01:01:16;;;;;;;42.72;24.52;;;4.20;99.90;;;;;;4914059;29;20047;-68
2022/11/14 01:04:02;;;;;;;44.58;24.85;;;4.20;99.90;;;;;;4912872;29;20051;-68
2022/11/14 01:06:48;;;;;;;47.17;25.65;;;4.20;99.90;;;;;;4914268;29;20177;-68
2022/11/14 01:09:34;;;;;;;36.78;23.08;;;4.20;99.90;;;;;;4913517;29;20051;-68
2022/11/14 01:12:20;;;;;;;44.83;25.55;;;4.20;99.90;;;;;;4913494;29;20488;-68
2022/11/14 01:15:06;;;;;;;40.30;23.25;;;4.30;99.90;;;;;;4914064;29;20154;-68
2022/11/14 01:17:52;;;;;;;42.13;23.50;;;4.20;99.90;;;;;;4911640;29;20054;-67
2022/11/14 01:20:40;;;;;;;40.80;23.25;;;4.20;99.90;;;;;;4913483;29;20080;-68
2022/11/14 01:23:26;;;;;;;39.72;23.88;;;4.30;99.90;;;;;;4904132;29;20119;-67
2022/11/14 01:26:13;;;;;;;41.83;23.23;;;4.30;99.90;;;;;;4898698;29;20047;-69
2022/11/14 01:28:59;;;;;;;40.83;23.10;;;4.20;99.90;;;;;;4893759;29;20058;-68
2022/11/14 01:31:45;;;;;;;37.50;22.77;;;4.20;99.90;;;;;;4914201;29;20043;-68
2022/11/14 01:34:30;;;;;;;40.72;23.58;;;4.10;99.90;;;;;;4913428;29;20099;-68
2022/11/14 01:37:16;;;;;;;41.75;23.67;;;4.10;99.90;;;;;;4901740;29;20063;-69
2022/11/14 01:40:02;;;;;;;41.78;24.27;;;4.10;99.90;;;;;;4911522;29;20044;-69
2022/11/14 01:43:10;;;;;;;39.33;22.70;;;4.10;99.90;;;;;;4902223;29;20047;-69
2022/11/14 01:46:11;;;;;;;40.85;22.90;;;4.10;99.90;;;;;;4913502;29;20148;-68
2022/11/14 01:49:16;;;;;;;42.15;23.75;;;4.00;99.90;;;;;;4916204;29;20044;-69
2022/11/14 01:52:07;;;;;;;36.80;21.88;;;4.10;99.90;;;;;;4917177;29;20043;-68
2022/11/14 01:54:59;;;;;;;38.20;22.98;;;4.00;99.90;;;;;;4908004;29;20083;-68
2022/11/14 01:57:47;;;;;;;41.20;24.98;;;4.00;99.90;;;;;;4914790;29;20518;-67
2022/11/14 02:00:33;;;;;;;43.22;24.42;;;4.00;99.90;;;;;;4916440;29;20207;-68
2022/11/14 02:03:20;;;;;;;46.60;25.92;;;4.00;99.90;;;;;;4912684;29;20053;-67
2022/11/14 02:06:08;;;;;;;42.67;23.42;;;4.00;99.90;;;;;;4903233;29;20059;-68
2022/11/14 02:08:55;;;;;;;41.15;23.70;;;4.00;99.90;;;;;;4902507;29;20118;-68
2022/11/14 02:11:44;;;;;;;43.47;23.45;;;3.90;99.90;;;;;;4915215;29;20043;-69
2022/11/14 02:14:31;;;;;;;43.55;24.70;;;4.00;99.90;;;;;;4916481;29;20127;-68
2022/11/14 02:17:18;;;;;;;42.72;23.75;;;3.90;99.90;;;;;;4914542;29;20044;-68
2022/11/14 02:20:31;;;;;;;43.65;23.35;;;3.90;99.90;;;;;;4915061;29;20074;-68
2022/11/14 02:23:28;;;;;;;43.17;24.27;;;3.90;99.90;;;;;;4903284;29;20067;-69
2022/11/14 02:26:19;;;;;;;40.63;23.63;;;3.90;99.90;;;;;;4916913;29;20044;-68
2022/11/14 02:29:07;;;;;;;44.63;24.77;;;3.90;99.90;;;;;;4915976;29;20429;-69
2022/11/14 02:31:52;;;;;;;43.55;25.02;;;3.90;99.90;;;;;;4915772;29;20467;-68
2022/11/14 02:34:38;;;;;;;42.08;24.83;;;3.90;99.90;;;;;;4916387;29;20047;-68
2022/11/14 02:37:24;;;;;;;40.15;22.75;;;3.90;99.90;;;;;;4906031;29;20044;-69
2022/11/14 02:40:10;;;;;;;38.83;22.58;;;4.00;99.90;;;;;;4916433;29;20036;-67
2022/11/14 02:42:56;;;;;;;36.58;21.55;;;4.00;99.90;;;;;;4915039;29;20056;-68
2022/11/14 02:45:42;;;;;;;40.20;22.60;;;4.00;99.90;;;;;;4903088;29;20185;-68
2022/11/14 02:48:28;;;;;;;39.40;22.65;;;4.00;99.90;;;;;;4914583;29;20047;-67
2022/11/14 02:51:14;;;;;;;36.50;20.98;;;3.90;99.90;;;;;;4915012;29;20103;-68
2022/11/14 02:54:00;;;;;;;37.58;20.90;;;3.90;99.90;;;;;;4914469;29;20475;-68
2022/11/14 02:56:46;;;;;;;34.67;19.63;;;3.90;99.90;;;;;;4913134;29;20063;-69
2022/11/14 02:59:32;;;;;;;39.78;21.92;;;3.90;99.90;;;;;;4913426;29;20062;-68
2022/11/14 03:02:18;;;;;;;35.50;20.25;;;3.90;99.90;;;;;;4900484;29;20472;-68
2022/11/14 03:05:04;;;;;;;34.42;21.08;;;3.90;99.90;;;;;;4906650;29;20044;-69
2022/11/14 03:07:53;;;;;;;38.25;21.30;;;4.00;99.90;;;;;;4904817;29;20084;-68
2022/11/14 03:10:39;;;;;;;34.60;20.65;;;3.90;99.90;;;;;;4914064;29;20543;-69
2022/11/14 03:13:29;;;;;;;32.47;18.73;;;4.00;99.90;;;;;;4912886;29;20115;-68
2022/11/14 03:16:14;;;;;;;33.53;20.05;;;4.00;99.90;;;;;;4915335;29;20127;-67
2022/11/14 03:19:01;;;;;;;32.40;18.15;;;4.00;99.90;;;;;;4907013;29;20479;-67
2022/11/14 03:21:47;;;;;;;34.20;20.50;;;4.00;99.90;;;;;;4905320;29;20051;-69
2022/11/14 03:24:33;;;;;;;31.52;19.42;;;4.10;99.90;;;;;;4914092;29;20408;-68
2022/11/14 03:27:19;;;;;;;30.20;17.52;;;4.10;99.90;;;;;;4915292;29;20047;-68
2022/11/14 03:30:06;;;;;;;32.20;18.77;;;4.00;99.90;;;;;;4910882;29;20433;-68
2022/11/14 03:32:52;;;;;;;29.35;18.10;;;4.00;99.90;;;;;;4914477;29;20051;-68
2022/11/14 03:35:42;;;;;;;28.98;17.23;;;4.00;99.90;;;;;;4890349;29;20078;-68
2022/11/14 03:38:28;;;;;;;27.35;17.00;;;4.00;99.90;;;;;;4898303;29;20055;-69
2022/11/14 03:41:14;;;;;;;29.23;17.85;;;4.00;99.90;;;;;;4914657;29;20500;-69
2022/11/14 03:44:00;;;;;;;26.35;16.73;;;4.00;99.90;;;;;;4915228;29;20051;-67
2022/11/14 03:46:45;;;;;;;30.05;18.73;;;4.00;99.90;;;;;;4896450;29;20523;-69
2022/11/14 03:49:31;;;;;;;29.17;16.92;;;4.00;99.90;;;;;;4905323;29;20136;-67
2022/11/14 03:52:18;;;;;;;29.67;17.25;;;4.00;99.90;;;;;;4913045;29;20047;-68
2022/11/14 03:55:04;;;;;;;29.17;17.40;;;3.90;99.90;;;;;;4913338;29;20119;-69
2022/11/14 03:57:50;;;;;;;31.08;17.92;;;3.90;99.90;;;;;;4913369;29;20143;-67
2022/11/14 04:00:36;;;;;;;31.83;18.67;;;3.90;99.90;;;;;;4913204;29;20467;-69
2022/11/14 04:03:23;;;;;;;34.35;20.10;;;3.80;99.90;;;;;;4914429;29;20522;-69
2022/11/14 04:06:09;;;;;;;34.47;20.20;;;3.70;99.90;;;;;;4913091;29;20046;-68
2022/11/14 04:08:55;;;;;;;36.55;19.70;;;3.60;99.90;;;;;;4914832;29;20051;-67
2022/11/14 04:11:41;;;;;;;33.35;20.13;;;3.60;99.90;;;;;;4907707;29;20120;-68
2022/11/14 04:14:27;;;;;;;35.25;20.45;;;3.60;99.90;;;;;;4913969;29;20530;-68
2022/11/14 04:17:13;;;;;;;36.45;21.77;;;3.60;99.90;;;;;;4910040;29;20111;-68
2022/11/14 04:19:58;;;;;;;33.92;20.38;;;3.50;99.90;;;;;;4910700;29;20078;-68
2022/11/14 04:22:45;;;;;;;31.58;18.83;;;3.50;99.90;;;;;;4910763;29;20258;-67
2022/11/14 04:25:31;;;;;;;30.65;18.30;;;3.70;99.90;;;;;;4911422;29;20075;-69
2022/11/14 04:28:17;;;;;;;27.75;17.30;;;3.70;99.90;;;;;;4911031;29;20048;-69
2022/11/14 04:31:03;;;;;;;28.92;17.48;;;3.80;99.90;;;;;;4912689;29;20512;-69
2022/11/14 04:33:48;;;;;;;25.73;16.63;;;3.80;99.90;;;;;;4904816;29;20491;-69
2022/11/14 04:36:34;;;;;;;26.77;15.02;;;3.80;99.90;;;;;;4912266;29;20048;-67
2022/11/14 04:39:20;;;;;;;24.77;15.75;;;3.90;99.90;;;;;;4912941;29;20504;-69
2022/11/14 04:42:07;;;;;;;25.58;14.70;;;4.00;99.90;;;;;;4910742;29;20040;-68
2022/11/14 04:44:53;;;;;;;26.35;14.88;;;4.00;99.90;;;;;;4910048;29;20076;-68
2022/11/14 04:47:41;;;;;;;24.08;14.32;;;4.00;99.90;;;;;;4913970;29;20452;-68
2022/11/14 04:50:27;;;;;;;22.77;13.57;;;4.10;99.90;;;;;;4913097;29;20499;-69
2022/11/14 04:53:13;;;;;;;22.33;13.77;;;4.20;99.90;;;;;;4900112;29;20107;-69
2022/11/14 04:55:59;;;;;;;22.38;14.20;;;4.20;99.90;;;;;;4903816;29;20066;-68
2022/11/14 04:58:45;;;;;;;20.67;13.48;;;4.20;99.90;;;;;;4912475;29;20526;-69
2022/11/14 05:01:31;;;;;;;22.52;14.43;;;4.20;99.90;;;;;;4912553;29;20040;-69
2022/11/14 05:04:17;;;;;;;22.45;13.43;;;4.20;99.90;;;;;;4913770;29;20040;-69
2022/11/14 05:07:03;;;;;;;28.98;14.43;;;4.20;99.90;;;;;;4913237;29;20499;-69
2022/11/14 05:09:49;;;;;;;23.20;14.05;;;4.00;99.90;;;;;;4909351;29;20543;-68
2022/11/14 05:12:34;;;;;;;22.60;14.18;;;4.00;99.90;;;;;;4911389;29;20055;-68
2022/11/14 05:15:20;;;;;;;21.10;13.65;;;4.00;99.90;;;;;;4914033;29;20058;-68
2022/11/14 05:18:06;;;;;;;24.33;14.25;;;4.00;99.90;;;;;;4914363;29;20037;-70
2022/11/14 05:20:52;;;;;;;21.63;14.15;;;4.10;99.90;;;;;;4916310;29;20172;-68
2022/11/14 05:23:38;;;;;;;23.00;14.50;;;4.00;99.90;;;;;;4926114;29;20088;-69
2022/11/14 05:26:24;;;;;;;28.15;15.55;;;3.90;99.90;;;;;;4909825;29;20036;-71
2022/11/14 05:29:10;;;;;;;25.67;15.75;;;3.80;99.90;;;;;;4916544;29;20531;-69
2022/11/14 05:31:56;;;;;;;23.77;14.50;;;3.80;99.90;;;;;;4913796;29;20044;-68
2022/11/14 05:34:42;;;;;;;23.83;15.18;;;3.70;99.90;;;;;;4915460;29;20184;-68
2022/11/14 05:37:28;;;;;;;26.85;14.73;;;3.70;99.90;;;;;;4915242;29;20127;-70
2022/11/14 05:40:15;;;;;;;27.73;15.43;;;3.70;99.90;;;;;;4917685;29;20059;-69
2022/11/14 05:43:01;;;;;;;32.85;16.83;;;3.70;99.90;;;;;;4911923;29;20432;-70
2022/11/14 05:45:47;;;;;;;26.05;16.33;;;3.70;99.90;;;;;;4903457;29;20127;-68
2022/11/14 05:48:33;;;;;;;27.73;16.58;;;3.70;99.90;;;;;;4916386;29;20044;-70
2022/11/14 05:51:19;;;;;;;33.95;18.48;;;3.70;99.90;;;;;;4916245;29;20066;-68
2022/11/14 05:54:05;;;;;;;29.35;16.98;;;3.60;99.90;;;;;;4915164;29;20067;-69
2022/11/14 05:56:51;;;;;;;31.13;18.13;;;3.60;99.90;;;;;;4911331;29;20051;-68
2022/11/14 05:59:37;;;;;;;30.65;17.70;;;3.50;99.90;;;;;;4913681;29;20054;-68
2022/11/14 06:02:23;;;;;;;32.47;18.80;;;3.40;99.90;;;;;;4916354;29;20036;-68
2022/11/14 06:05:08;;;;;;;30.25;18.05;;;3.40;99.90;;;;;;4916958;29;20109;-68
2022/11/14 06:07:58;;;;;;;33.38;19.20;;;3.40;99.90;;;;;;4917118;29;20067;-67
2022/11/14 06:10:44;;;;;;;30.42;18.48;;;3.40;99.90;;;;;;4916928;29;20114;-69
2022/11/14 06:13:31;;;;;;;33.92;19.23;;;3.30;99.90;;;;;;4915685;29;20052;-70
2022/11/14 06:16:18;;;;;;;32.70;19.33;;;3.30;99.90;;;;;;4908520;29;20143;-70
2022/11/14 06:19:04;;;;;;;34.03;18.85;;;3.20;99.90;;;;;;4916530;29;20060;-68
2022/11/14 06:21:50;;;;;;;36.58;19.95;;;3.30;99.90;;;;;;4915552;29;20058;-68
2022/11/14 06:24:36;;;;;;;33.65;20.63;;;3.30;99.90;;;;;;4916376;29;20122;-68
2022/11/14 06:27:21;;;;;;;32.58;19.60;;;3.30;99.90;;;;;;4915355;29;20467;-68
2022/11/14 06:30:08;;;;;;;32.97;18.42;;;3.30;99.90;;;;;;4914186;29;20047;-68
2022/11/14 06:33:00;;;;;;;32.92;20.15;;;3.30;99.90;;;;;;4900414;29;20052;-67
2022/11/14 06:35:46;;;;;;;32.17;19.00;;;3.40;99.90;;;;;;4910544;29;20390;-68
2022/11/14 06:38:35;;;;;;;31.55;19.05;;;3.40;99.90;;;;;;4913716;29;20062;-68
2022/11/14 06:41:22;;;;;;;31.60;18.77;;;3.40;99.90;;;;;;4913771;29;20095;-69
2022/11/14 06:44:08;;;;;;;33.35;18.70;;;3.40;99.90;;;;;;4911504;29;20067;-67
2022/11/14 06:46:55;;;;;;;32.92;18.80;;;3.40;99.90;;;;;;4927966;29;20043;-68
2022/11/14 06:49:41;;;;;;;35.22;19.48;;;3.50;99.90;;;;;;4914388;29;20032;-68
2022/11/14 06:52:26;;;;;;;30.65;18.00;;;3.50;99.90;;;;;;4916067;29;20507;-67
2022/11/14 06:55:12;;;;;;;32.08;18.63;;;3.50;99.90;;;;;;4908930;29;20074;-68
2022/11/14 06:57:58;;;;;;;29.90;18.63;;;3.60;99.90;;;;;;4914180;29;20415;-68
2022/11/14 07:00:44;;;;;;;31.02;18.15;;;3.60;99.90;;;;;;4910244;29;20055;-69
2022/11/14 07:03:30;;;;;;;29.73;18.48;;;3.70;99.90;;;;;;4909692;29;20040;-67
2022/11/14 07:06:21;;;;;;;29.38;17.48;;;3.80;99.90;;;;;;4912620;29;20099;-66
2022/11/14 07:09:09;;;;;;;28.25;18.08;;;3.80;99.90;;;;;;4915121;29;20104;-68
2022/11/14 07:11:55;;;;;;;29.80;17.77;;;3.90;99.90;;;;;;4911042;29;20087;-69
2022/11/14 07:14:41;;;;;;;30.85;17.20;;;4.00;99.90;;;;;;4909599;29;20179;-67
2022/11/14 07:17:27;;;;;;;27.27;16.80;;;4.00;99.90;;;;;;4914576;29;20040;-66
2022/11/14 07:20:17;;;;;;;32.67;18.80;;;4.10;99.90;;;;;;4912204;29;20058;-67
2022/11/14 07:23:03;;;;;;;28.98;17.70;;;4.20;99.90;;;;;;4908672;29;20071;-66
2022/11/14 07:25:49;;;;;;;31.58;18.00;;;4.20;99.90;;;;;;4902631;29;20052;-67
2022/11/14 07:28:36;;;;;;;27.52;17.15;;;4.30;99.90;;;;;;4910863;29;20060;-66
2022/11/14 07:31:23;;;;;;;25.33;16.20;;;4.40;99.90;;;;;;4910781;29;20504;-69
2022/11/14 07:34:10;;;;;;;26.20;15.88;;;4.50;99.90;;;;;;4918819;29;20910;-68
2022/11/14 07:36:56;;;;;;;24.52;15.77;;;4.60;99.90;;;;;;4911742;29;20419;-68
2022/11/14 07:39:42;;;;;;;25.45;16.10;;;4.70;99.90;;;;;;4909655;29;20356;-67
2022/11/14 07:42:28;;;;;;;30.80;17.13;;;4.70;99.90;;;;;;4902890;29;20348;-71
2022/11/14 07:45:15;;;;;;;28.25;16.77;;;4.80;99.90;;;;;;4914394;29;20036;-68
2022/11/14 07:48:01;;;;;;;25.77;15.50;;;4.90;99.90;;;;;;4914465;29;20099;-68
2022/11/14 07:50:47;;;;;;;26.20;15.93;;;4.80;99.90;;;;;;4906405;29;20147;-67
2022/11/14 07:53:34;;;;;;;24.77;14.85;;;4.80;99.90;;;;;;4899068;29;20079;-68
2022/11/14 07:56:21;;;;;;;24.90;15.98;;;4.80;99.90;;;;;;4913003;29;20046;-68
2022/11/14 07:59:06;;;;;;;27.10;15.60;;;4.80;99.90;;;;;;4910031;29;20580;-68
2022/11/14 08:01:52;;;;;;;24.45;15.45;;;4.80;99.90;;;;;;4908989;29;20114;-68
2022/11/14 08:04:38;;;;;;;25.50;15.88;;;4.80;99.90;;;;;;4913084;29;20188;-69
2022/11/14 08:07:24;;;;;;;35.72;20.80;;;5.00;99.90;;;;;;4913499;29;20036;-68
2022/11/14 08:10:12;;;;;;;29.23;17.30;;;5.00;99.90;;;;;;4905488;29;20114;-68
2022/11/14 08:13:09;;;;;;;30.77;17.48;;;5.10;99.90;;;;;;4910375;29;20040;-69
2022/11/14 08:16:15;;;;;;;34.42;20.65;;;5.30;99.90;;;;;;4910150;29;20087;-69
2022/11/14 08:19:01;;;;;;;29.00;17.65;;;5.30;99.90;;;;;;4909486;29;20142;-67
2022/11/14 08:21:47;;;;;;;24.73;15.75;;;5.40;99.90;;;;;;4911619;29;20079;-69
2022/11/14 08:24:34;;;;;;;26.40;16.13;;;5.50;99.90;;;;;;4898277;29;20039;-68
2022/11/14 08:27:20;;;;;;;25.58;15.10;;;5.60;99.90;;;;;;4912635;29;20130;-67
2022/11/14 08:30:06;;;;;;;23.48;15.82;;;5.60;99.90;;;;;;4911422;29;20515;-68
2022/11/14 08:32:52;;;;;;;24.70;15.13;;;5.70;99.90;;;;;;4911904;29;20036;-68
2022/11/14 08:35:38;;;;;;;22.45;13.88;;;5.80;99.90;;;;;;4900117;29;20070;-67
2022/11/14 08:38:24;;;;;;;23.73;14.63;;;5.90;99.90;;;;;;4909334;29;20040;-67
2022/11/14 08:41:10;;;;;;;23.80;14.70;;;6.00;99.90;;;;;;4907415;29;20104;-67
2022/11/14 08:43:57;;;;;;;24.17;15.38;;;6.00;99.90;;;;;;4908016;29;20056;-68
2022/11/14 08:46:43;;;;;;;21.02;14.77;;;6.20;99.90;;;;;;4912681;29;20039;-67
2022/11/14 08:49:29;;;;;;;23.90;16.45;;;6.40;99.90;;;;;;4906807;29;20036;-68
2022/11/14 08:52:15;;;;;;;26.33;15.70;;;6.60;99.90;;;;;;4911292;29;20491;-69
2022/11/14 08:55:01;;;;;;;25.77;16.83;;;6.70;99.90;;;;;;4912182;29;20177;-68
2022/11/14 08:57:47;;;;;;;26.77;17.05;;;6.90;99.90;;;;;;4901452;29;20499;-68
2022/11/14 09:00:34;;;;;;;23.88;16.33;;;7.10;99.90;;;;;;4910220;29;20055;-68
2022/11/14 09:03:20;;;;;;;25.30;15.27;;;7.20;99.90;;;;;;4891650;29;20056;-67
2022/11/14 09:06:06;;;;;;;26.17;16.35;;;7.30;99.90;;;;;;4907302;29;20055;-68
2022/11/14 09:08:52;;;;;;;23.88;15.40;;;7.50;99.90;;;;;;4910733;29;20059;-67
2022/11/14 09:11:38;;;;;;;22.88;13.77;;;7.60;99.90;;;;;;4911322;29;20567;-68
2022/11/14 09:14:24;;;;;;;23.90;14.65;;;7.70;99.90;;;;;;4907691;29;20049;-69
2022/11/14 09:17:10;;;;;;;19.50;13.38;;;7.90;99.90;;;;;;4898389;29;20048;-68
2022/11/14 09:19:56;;;;;;;18.27;12.98;;;8.00;99.90;;;;;;4902232;29;20055;-67
2022/11/14 09:22:42;;;;;;;22.60;13.52;;;8.10;99.90;;;;;;4913646;29;20045;-68
2022/11/14 09:25:29;;;;;;;18.98;12.65;;;8.20;99.90;;;;;;4913088;29;20044;-68
2022/11/14 09:28:15;;;;;;;18.33;13.18;;;8.30;99.90;;;;;;4911426;29;20091;-68
2022/11/14 09:31:06;;;;;;;17.25;12.02;;;8.40;99.90;;;;;;4913552;29;20519;-69
2022/11/14 09:33:52;;;;;;;21.10;14.35;;;8.60;99.90;;;;;;4907331;29;20040;-67
2022/11/14 09:36:38;;;;;;;21.73;13.38;;;8.80;99.90;;;;;;4905827;29;20048;-69
2022/11/14 09:39:24;;;;;;;18.77;13.10;;;8.80;99.90;;;;;;4912681;29;20052;-68
2022/11/14 09:42:19;;;;;;;18.92;13.73;;;8.90;99.90;;;;;;4905464;29;20092;-70
2022/11/14 09:45:11;;;;;;;18.25;12.57;;;9.00;99.90;;;;;;4909631;29;20047;-68
2022/11/14 09:48:09;;;;;;;18.77;13.02;;;9.20;99.90;;;;;;4911268;29;20076;-67
2022/11/14 09:51:04;;;;;;;17.73;12.57;;;9.30;99.90;;;;;;4897406;29;20046;-68
2022/11/14 09:54:29;;;;;;;17.15;11.82;;;9.60;99.90;;;;;;4909049;29;20191;-68
2022/11/14 09:57:18;;;;;;;18.60;11.77;;;9.70;99.90;;;;;;4907221;29;20043;-69
2022/11/14 10:00:19;;;;;;;24.33;15.27;;;9.90;99.90;;;;;;4900004;29;20044;-69
2022/11/14 10:03:57;;;;;;;21.93;13.07;;;10.10;99.90;;;;;;4911046;29;20048;-69
2022/11/14 10:07:04;;;;;;;16.80;11.93;;;10.30;99.90;;;;;;4901625;29;20694;-67
2022/11/14 10:10:17;;;;;;;18.67;12.38;;;10.50;99.90;;;;;;4901731;29;20058;-67
2022/11/14 10:13:06;;;;;;;;;;;10.70;99.90;;;;;;4908162;29;20048;-69
2022/11/14 10:16:14;;;;;;;15.80;10.77;;;10.90;99.90;;;;;;4924906;29;19927;-68
2022/11/14 10:19:17;;;;;;;18.13;11.52;;;11.10;99.90;;;;;;4914405;29;20082;-69
2022/11/14 10:22:35;;;;;;;18.58;12.95;;;11.30;99.90;;;;;;4915997;29;20126;-69
2022/11/14 10:25:24;;;;;;;20.30;11.65;;;11.60;99.90;;;;;;4910088;29;20138;-68
2022/11/14 10:28:44;;;;;;;17.20;11.90;;;11.90;99.90;;;;;;4908337;29;20124;-68
2022/11/14 10:31:40;;;;;;;16.70;11.27;;;12.70;99.90;;;;;;4911584;29;20204;-67
2022/11/14 10:34:35;;;;;;;13.43;10.15;;;14.60;99.90;;;;;;4914368;29;20055;-68
2022/11/14 10:37:28;;;;;;;19.55;13.50;;;15.60;99.90;;;;;;4908049;29;20086;-67
2022/11/14 10:40:21;;;;;;;13.85;9.32;;;15.60;99.90;;;;;;4915860;29;20627;-68
2022/11/14 10:43:32;;;;;;;11.93;9.65;;;15.60;99.90;;;;;;4911135;29;20236;-67
2022/11/14 10:46:38;;;;;;;9.95;8.93;;;15.60;99.90;;;;;;4913669;29;20121;-67
2022/11/14 10:49:24;;;;;;;9.88;8.95;;;16.10;99.90;;;;;;4916262;29;20064;-69
2022/11/14 10:52:15;;;;;;;10.65;8.95;;;16.40;99.90;;;;;;4916015;29;20036;-67
2022/11/14 10:55:16;;;;;;;10.43;9.05;;;16.70;99.90;;;;;;4915252;29;20059;-67
2022/11/14 10:58:09;;;;;;;10.00;8.75;;;17.00;99.90;;;;;;4909436;29;20051;-67
2022/11/14 11:00:57;;;;;;;9.63;8.38;;;17.20;99.90;;;;;;4905647;29;20051;-67
2022/11/14 11:03:43;;;;;;;10.93;8.85;;;17.20;99.90;;;;;;4914522;29;20136;-68
2022/11/14 11:06:29;;;;;;;9.32;8.43;;;17.20;99.90;;;;;;4914130;29;20131;-68
2022/11/14 11:12:36;;;;;;;10.65;9.57;;;18.00;99.90;;;;;;4911813;29;20040;-68
2022/11/14 11:15:27;;;;;;;10.23;8.80;;;18.20;99.90;;;;;;4915092;29;20056;-68
2022/11/14 11:18:29;;;;;;;9.65;8.75;;;18.50;99.90;;;;;;4910710;29;20455;-67
2022/11/14 11:21:18;;;;;;;9.45;8.55;;;18.50;99.90;;;;;;4914935;29;20560;-69
2022/11/14 11:24:05;;;;;;;9.63;8.68;;;19.00;99.90;;;;;;4913934;29;20154;-70
2022/11/14 11:27:21;;;;;;;10.02;9.02;;;19.00;99.90;;;;;;4914223;29;20055;-69
2022/11/14 11:30:19;;;;;;;11.23;9.10;;;18.70;99.90;;;;;;4906160;29;20055;-68
2022/11/14 11:33:20;;;;;;;10.30;9.18;;;18.40;99.90;;;;;;4906847;29;20164;-68
2022/11/14 11:36:11;;;;;;;10.45;9.45;;;18.70;99.90;;;;;;4914447;29;20127;-68
2022/11/14 11:38:59;;;;;;;10.70;9.60;;;19.30;99.90;;;;;;4905245;29;20059;-68
2022/11/14 11:41:45;;;;;;;10.32;9.32;;;19.70;99.90;;;;;;4908444;29;20473;-69
2022/11/14 11:44:58;;;;;;;9.68;8.68;;;19.70;99.90;;;;;;4910058;29;20148;-70
2022/11/14 11:47:51;;;;;;;9.13;8.18;;;19.90;99.90;;;;;;4913420;29;20165;-69
2022/11/14 11:50:38;;;;;;;9.32;8.43;;;19.40;99.90;;;;;;4914154;29;20056;-69
2022/11/14 11:53:28;;;;;;;9.48;8.57;;;19.90;99.90;;;;;;4911636;29;20040;-69
2022/11/14 11:56:20;;;;;;;11.20;8.52;;;20.20;99.90;;;;;;4913060;29;20482;-69
2022/11/14 11:59:28;;;;;;;9.48;8.57;;;20.20;99.90;;;;;;4913838;29;20044;-69
2022/11/14 12:02:27;;;;;;;9.32;8.43;;;20.10;99.90;;;;;;4898482;29;20408;-69
2022/11/14 12:05:33;;;;;;;9.43;8.40;;;20.30;99.90;;;;;;4901045;29;20455;-69
2022/11/14 12:08:34;;;;;;;9.00;8.20;;;20.50;99.90;;;;;;4910189;29;20055;-68
2022/11/14 12:11:25;;;;;;;10.02;9.13;;;20.70;99.90;;;;;;4897040;29;20048;-70
2022/11/14 12:14:35;;;;;;;10.27;9.30;;;20.40;99.90;;;;;;4907232;29;20046;-69
2022/11/14 12:17:53;;;;;;;10.43;9.43;;;19.60;99.90;;;;;;4902909;29;20080;-69
2022/11/14 12:21:03;;;;;;;9.75;8.75;;;19.80;99.90;;;;;;4915942;29;20056;-70
2022/11/14 12:24:47;;;;;;;9.65;8.75;;;19.70;99.90;;;;;;4904366;29;20067;-69
2022/11/14 12:27:54;;;;;;;9.93;8.98;;;20.30;99.90;;;;;;4833775;29;20198;-69
2022/11/14 12:30:47;;;;;;;9.35;8.27;;;20.50;99.90;;;;;;4834998;29;20106;-70
2022/11/14 12:33:42;;;;;;;11.85;10.65;;;21.10;99.90;;;;;;4813013;29;20486;-69
2022/11/14 12:36:33;;;;;;;9.32;8.32;;;21.20;99.90;;;;;;4820004;29;20525;-67
2022/11/14 12:39:27;;;;;;;12.33;11.00;;;21.50;99.90;;;;;;4834293;29;20061;-69
2022/11/14 12:42:19;;;;;;;10.13;9.13;;;21.70;99.90;;;;;;4826222;29;20770;-69
2022/11/14 12:45:39;;;;;;;9.55;8.27;;;21.90;99.90;;;;;;4833533;29;20556;-69
2022/11/14 12:48:25;;;;;;;9.07;8.10;;;22.20;99.90;;;;;;4835099;29;20068;-69
2022/11/14 12:51:26;;;;;;;9.60;8.60;;;22.50;99.90;;;;;;4820035;29;20054;-69
2022/11/14 12:54:43;;;;;;;9.90;8.90;;;22.50;99.90;;;;;;4823362;29;20046;-69
2022/11/14 12:57:48;;;;;;;9.73;8.40;;;22.30;99.90;;;;;;4825232;29;20107;-69
2022/11/14 13:00:45;;;;;;;9.15;8.25;;;23.10;99.90;;;;;;4830833;29;20045;-69
2022/11/14 13:03:34;;;;;;;8.50;7.70;;;22.80;99.90;;;;;;4883412;29;20085;-69
2022/11/14 13:06:32;;;;;;;8.27;7.47;;;22.90;99.90;;;;;;4905415;29;20582;-69
2022/11/14 13:09:41;;;;;;;8.52;7.22;;;23.00;99.90;;;;;;4902466;29;20055;-69
2022/11/14 13:22:35;;;;;;;;;;;22.40;99.90;;;;;;4908792;29;20051;-70
2022/11/14 13:25:23;;;;;;;6.78;6.18;;;22.70;99.90;;;;;;4903756;29;19934;-70
2022/11/14 13:28:36;;;;;;;6.72;6.13;;;22.20;99.90;;;;;;4908781;29;20516;-70
2022/11/14 13:31:44;;;;;;;6.38;5.78;;;21.40;99.90;;;;;;4911817;29;20368;-71
2022/11/14 13:34:51;;;;;;;6.72;6.10;;;21.80;99.90;;;;;;4908118;29;20127;-70
2022/11/14 13:38:09;;;;;;;6.53;5.63;;;23.30;99.90;;;;;;4909356;29;20048;-71
2022/11/14 13:41:13;;;;;;;6.50;5.90;;;24.60;98.20;;;;;;4913107;29;20050;-68
2022/11/14 13:44:11;;;;;;;6.47;5.88;;;25.70;96.30;;;;;;4913342;29;20095;-69
2022/11/14 13:47:17;;;;;;;7.47;5.65;;;26.90;94.40;;;;;;4918235;29;20071;-69
2022/11/14 13:50:07;;;;;;;6.88;6.18;;;26.30;93.30;;;;;;4916303;29;20563;-70
2022/11/14 13:52:53;;;;;;;5.95;5.30;;;27.30;92.30;;;;;;4910830;29;20060;-69
2022/11/14 13:56:04;;;;;;;5.90;5.40;;;27.80;91.20;;;;;;4915938;29;20420;-68
2022/11/14 13:59:09;;;;;;;6.05;5.18;;;28.30;89.30;;;;;;4913097;29;20051;-69
2022/11/14 14:02:20;;;;;;;5.60;5.10;;;27.80;88.80;;;;;;4914647;29;20127;-70
2022/11/14 14:05:12;;;;;;;6.45;5.70;;;27.80;87.70;;;;;;4901717;29;20134;-70
2022/11/14 14:08:19;;;;;;;6.07;5.57;;;28.10;86.50;;;;;;4903572;29;20131;-70
2022/11/14 14:11:11;;;;;;;5.80;5.30;;;28.40;85.00;;;;;;4913683;29;20466;-70
2022/11/14 14:14:25;;;;;;;5.70;5.20;;;28.30;84.40;;;;;;4906333;29;20071;-70
2022/11/14 14:17:42;;;;;;;6.65;5.90;;;28.00;84.10;;;;;;4909226;29;20048;-69
2022/11/14 14:20:35;;;;;;;6.63;6.03;;;27.70;83.90;;;;;;4909315;29;20137;-70
2022/11/14 14:23:42;;;;;;;5.57;5.07;;;27.20;83.80;;;;;;4911871;29;20139;-71
2022/11/14 14:26:54;;;;;;;7.07;5.57;;;27.20;84.60;;;;;;4914739;29;20099;-69
2022/11/14 14:29:48;;;;;;;6.32;5.72;;;25.20;86.00;;;;;;4915632;29;20064;-68
2022/11/14 14:32:34;;;;;;;6.70;5.85;;;22.90;90.60;;;;;;4909907;29;20051;-70
2022/11/14 14:35:20;;;;;;;6.85;6.28;;;21.60;92.60;;;;;;4907894;29;20044;-71
2022/11/14 14:38:24;;;;;;;6.38;5.80;;;20.80;93.90;;;;;;4898187;29;20135;-70
2022/11/14 14:41:16;;;;;;;6.40;5.80;;;19.40;96.50;;;;;;4913681;29;20396;-69
2022/11/14 14:44:02;;;;;;;6.40;5.80;;;18.10;99.10;;;;;;4906399;29;20044;-69
2022/11/14 14:46:48;;;;;;;7.15;6.20;;;17.10;99.90;;;;;;4913802;29;20071;-70
2022/11/14 14:49:36;;;;;;;7.07;6.35;;;16.20;99.90;;;;;;4908504;29;20570;-70
2022/11/14 14:52:29;;;;;;;7.50;5.97;;;15.50;99.90;;;;;;4914864;29;20464;-70
2022/11/14 14:55:31;;;;;;;6.47;5.88;;;15.10;99.90;;;;;;4913677;29;20171;-69